sensor_id;sensor_type;location;lat;lon;timestamp;P1;durP1;ratioP1;P2;durP2;ratioP2
2544;SDS011;36212;48.838;9.142;2022-09-03T00:00:44;3.00;;;2.37;;
2544;SDS011;36212;48.838;9.142;2022-09-03T00:03:26;2.60;;;2.17;;
2544;SDS011;36212;48.838;9.142;2022-09-03T00:14:45;3.00;;;2.00;;
2544;SDS011;36212;48.838;9.142;2022-09-03T00:18:01;2.40;;;2.20;;
2544;SDS011;36212;48.838;9.142;2022-09-03T00:20:50;2.33;;;2.23;;
2544;SDS011;36212;48.838;9.142;2022-09-03T00:23:38;3.30;;;2.47;;
2544;SDS011;36212;48.838;9.142;2022-09-03T00:29:02;3.10;;;2.33;;
2544;SDS011;36212;48.838;9.142;2022-09-03T00:31:58;2.47;;;2.27;;
2544;SDS011;36212;48.838;9.142;2022-09-03T00:34:42;2.30;;;2.20;;
2544;SDS011;36212;48.838;9.142;2022-09-03T00:37:22;3.07;;;2.20;;
2544;SDS011;36212;48.838;9.142;2022-09-03T00:39:57;2.23;;;2.00;;
2544;SDS011;36212;48.838;9.142;2022-09-03T00:42:43;2.47;;;2.27;;
2544;SDS011;36212;48.838;9.142;2022-09-03T00:48:49;2.30;;;2.20;;
2544;SDS011;36212;48.838;9.142;2022-09-03T00:52:01;2.60;;;2.50;;
2544;SDS011;36212;48.838;9.142;2022-09-03T01:01:20;4.97;;;2.63;;
2544;SDS011;36212;48.838;9.142;2022-09-03T01:04:20;3.23;;;2.33;;
2544;SDS011;36212;48.838;9.142;2022-09-03T01:19:46;2.57;;;2.47;;
2544;SDS011;36212;48.838;9.142;2022-09-03T01:29:09;2.40;;;2.20;;
2544;SDS011;36212;48.838;9.142;2022-09-03T01:32:07;4.03;;;2.30;;
2544;SDS011;36212;48.838;9.142;2022-09-03T01:34:54;2.20;;;2.00;;
2544;SDS011;36212;48.838;9.142;2022-09-03T01:48:02;2.47;;;2.27;;
2544;SDS011;36212;48.838;9.142;2022-09-03T01:51:29;2.63;;;2.40;;
2544;SDS011;36212;48.838;9.142;2022-09-03T02:00:29;5.27;;;2.70;;
2544;SDS011;36212;48.838;9.142;2022-09-03T02:03:08;2.43;;;2.23;;
2544;SDS011;36212;48.838;9.142;2022-09-03T02:05:42;2.10;;;2.00;;
2544;SDS011;36212;48.838;9.142;2022-09-03T02:08:18;3.00;;;2.13;;
2544;SDS011;36212;48.838;9.142;2022-09-03T02:10:52;3.17;;;2.20;;
2544;SDS011;36212;48.838;9.142;2022-09-03T02:13:43;2.30;;;2.20;;
2544;SDS011;36212;48.838;9.142;2022-09-03T02:16:22;2.53;;;2.27;;
2544;SDS011;36212;48.838;9.142;2022-09-03T02:19:02;2.23;;;1.83;;
2544;SDS011;36212;48.838;9.142;2022-09-03T02:21:44;2.60;;;2.27;;
2544;SDS011;36212;48.838;9.142;2022-09-03T02:24:24;4.60;;;2.00;;
2544;SDS011;36212;48.838;9.142;2022-09-03T02:26:58;2.00;;;1.90;;
2544;SDS011;36212;48.838;9.142;2022-09-03T02:29:32;2.33;;;2.13;;
2544;SDS011;36212;48.838;9.142;2022-09-03T02:32:04;2.10;;;2.00;;
2544;SDS011;36212;48.838;9.142;2022-09-03T02:34:36;2.27;;;2.07;;
2544;SDS011;36212;48.838;9.142;2022-09-03T02:37:12;2.20;;;2.10;;
2544;SDS011;36212;48.838;9.142;2022-09-03T02:39:47;2.40;;;2.20;;
2544;SDS011;36212;48.838;9.142;2022-09-03T02:42:21;3.67;;;2.50;;
2544;SDS011;36212;48.838;9.142;2022-09-03T02:44:59;2.13;;;1.93;;
2544;SDS011;36212;48.838;9.142;2022-09-03T02:47:58;2.83;;;2.20;;
2544;SDS011;36212;48.838;9.142;2022-09-03T02:50:31;2.10;;;2.00;;
2544;SDS011;36212;48.838;9.142;2022-09-03T02:53:12;2.13;;;2.03;;
2544;SDS011;36212;48.838;9.142;2022-09-03T02:55:44;2.40;;;2.30;;
2544;SDS011;36212;48.838;9.142;2022-09-03T02:58:17;2.30;;;2.20;;
2544;SDS011;36212;48.838;9.142;2022-09-03T03:00:49;2.93;;;2.40;;
2544;SDS011;36212;48.838;9.142;2022-09-03T03:03:23;2.50;;;2.30;;
2544;SDS011;36212;48.838;9.142;2022-09-03T03:05:57;2.57;;;2.40;;
2544;SDS011;36212;48.838;9.142;2022-09-03T03:08:33;2.20;;;1.97;;
2544;SDS011;36212;48.838;9.142;2022-09-03T03:11:06;5.53;;;2.03;;
2544;SDS011;36212;48.838;9.142;2022-09-03T03:13:38;3.23;;;2.93;;
2544;SDS011;36212;48.838;9.142;2022-09-03T03:16:11;2.60;;;2.40;;
2544;SDS011;36212;48.838;9.142;2022-09-03T03:18:44;2.47;;;2.30;;
2544;SDS011;36212;48.838;9.142;2022-09-03T03:21:17;2.60;;;2.40;;
2544;SDS011;36212;48.838;9.142;2022-09-03T03:23:50;3.33;;;2.77;;
2544;SDS011;36212;48.838;9.142;2022-09-03T03:26:22;2.80;;;2.70;;
2544;SDS011;36212;48.838;9.142;2022-09-03T03:28:55;2.53;;;2.33;;
2544;SDS011;36212;48.838;9.142;2022-09-03T03:31:31;2.80;;;2.27;;
2544;SDS011;36212;48.838;9.142;2022-09-03T03:34:03;2.47;;;2.37;;
2544;SDS011;36212;48.838;9.142;2022-09-03T03:36:35;2.63;;;2.43;;
2544;SDS011;36212;48.838;9.142;2022-09-03T03:39:08;3.20;;;2.70;;
2544;SDS011;36212;48.838;9.142;2022-09-03T03:41:41;3.43;;;3.00;;
2544;SDS011;36212;48.838;9.142;2022-09-03T03:44:14;2.93;;;2.33;;
2544;SDS011;36212;48.838;9.142;2022-09-03T03:46:49;4.20;;;2.67;;
2544;SDS011;36212;48.838;9.142;2022-09-03T03:49:21;6.47;;;2.63;;
2544;SDS011;36212;48.838;9.142;2022-09-03T03:51:53;3.33;;;3.03;;
2544;SDS011;36212;48.838;9.142;2022-09-03T03:54:25;2.83;;;2.73;;
2544;SDS011;36212;48.838;9.142;2022-09-03T03:56:57;3.13;;;2.93;;
2544;SDS011;36212;48.838;9.142;2022-09-03T03:59:29;2.80;;;2.60;;
2544;SDS011;36212;48.838;9.142;2022-09-03T04:02:01;3.03;;;2.83;;
2544;SDS011;36212;48.838;9.142;2022-09-03T04:04:33;3.23;;;2.93;;
2544;SDS011;36212;48.838;9.142;2022-09-03T04:07:06;3.38;;;3.08;;
2544;SDS011;36212;48.838;9.142;2022-09-03T04:09:39;2.90;;;2.63;;
2544;SDS011;36212;48.838;9.142;2022-09-03T04:12:11;2.57;;;2.47;;
2544;SDS011;36212;48.838;9.142;2022-09-03T04:14:43;2.83;;;2.63;;
2544;SDS011;36212;48.838;9.142;2022-09-03T04:17:15;3.67;;;2.80;;
2544;SDS011;36212;48.838;9.142;2022-09-03T04:19:47;2.97;;;2.77;;
2544;SDS011;36212;48.838;9.142;2022-09-03T04:22:20;3.20;;;3.00;;
2544;SDS011;36212;48.838;9.142;2022-09-03T04:24:52;3.40;;;3.20;;
2544;SDS011;36212;48.838;9.142;2022-09-03T04:27:24;2.80;;;2.70;;
2544;SDS011;36212;48.838;9.142;2022-09-03T04:29:56;3.23;;;3.03;;
2544;SDS011;36212;48.838;9.142;2022-09-03T04:32:28;3.27;;;3.07;;
2544;SDS011;36212;48.838;9.142;2022-09-03T04:35:24;3.20;;;3.00;;
2544;SDS011;36212;48.838;9.142;2022-09-03T04:38:06;3.40;;;3.10;;
2544;SDS011;36212;48.838;9.142;2022-09-03T04:40:38;3.07;;;2.87;;
2544;SDS011;36212;48.838;9.142;2022-09-03T04:43:10;3.17;;;2.97;;
2544;SDS011;36212;48.838;9.142;2022-09-03T04:45:42;3.87;;;2.50;;
2544;SDS011;36212;48.838;9.142;2022-09-03T04:48:14;4.90;;;2.70;;
2544;SDS011;36212;48.838;9.142;2022-09-03T04:50:46;2.80;;;2.60;;
2544;SDS011;36212;48.838;9.142;2022-09-03T04:53:19;3.20;;;3.00;;
2544;SDS011;36212;48.838;9.142;2022-09-03T04:55:52;3.37;;;2.70;;
2544;SDS011;36212;48.838;9.142;2022-09-03T04:58:24;3.00;;;2.70;;
2544;SDS011;36212;48.838;9.142;2022-09-03T05:00:56;3.30;;;3.10;;
2544;SDS011;36212;48.838;9.142;2022-09-03T05:03:36;2.90;;;2.70;;
2544;SDS011;36212;48.838;9.142;2022-09-03T05:06:09;3.30;;;3.00;;
2544;SDS011;36212;48.838;9.142;2022-09-03T05:08:43;3.07;;;2.77;;
2544;SDS011;36212;48.838;9.142;2022-09-03T05:11:21;3.03;;;2.77;;
2544;SDS011;36212;48.838;9.142;2022-09-03T05:13:56;3.07;;;2.87;;
2544;SDS011;36212;48.838;9.142;2022-09-03T05:16:30;3.20;;;2.80;;
2544;SDS011;36212;48.838;9.142;2022-09-03T05:19:02;3.57;;;3.37;;
2544;SDS011;36212;48.838;9.142;2022-09-03T05:21:38;3.10;;;2.90;;
2544;SDS011;36212;48.838;9.142;2022-09-03T05:24:12;4.23;;;3.23;;
2544;SDS011;36212;48.838;9.142;2022-09-03T05:26:45;2.60;;;2.50;;
2544;SDS011;36212;48.838;9.142;2022-09-03T05:29:19;2.90;;;2.70;;
2544;SDS011;36212;48.838;9.142;2022-09-03T05:31:53;3.80;;;3.50;;
2544;SDS011;36212;48.838;9.142;2022-09-03T05:34:25;3.30;;;3.10;;
2544;SDS011;36212;48.838;9.142;2022-09-03T05:36:58;3.43;;;3.13;;
2544;SDS011;36212;48.838;9.142;2022-09-03T05:39:30;3.50;;;3.30;;
2544;SDS011;36212;48.838;9.142;2022-09-03T05:42:02;3.43;;;3.23;;
2544;SDS011;36212;48.838;9.142;2022-09-03T05:44:35;3.73;;;3.43;;
2544;SDS011;36212;48.838;9.142;2022-09-03T05:47:07;3.40;;;3.20;;
2544;SDS011;36212;48.838;9.142;2022-09-03T05:49:39;3.27;;;3.07;;
2544;SDS011;36212;48.838;9.142;2022-09-03T05:52:11;3.60;;;3.33;;
2544;SDS011;36212;48.838;9.142;2022-09-03T05:54:44;3.00;;;2.80;;
2544;SDS011;36212;48.838;9.142;2022-09-03T05:57:17;3.20;;;2.90;;
2544;SDS011;36212;48.838;9.142;2022-09-03T05:59:49;3.20;;;2.90;;
2544;SDS011;36212;48.838;9.142;2022-09-03T06:02:21;3.20;;;3.00;;
2544;SDS011;36212;48.838;9.142;2022-09-03T06:04:55;6.13;;;3.37;;
2544;SDS011;36212;48.838;9.142;2022-09-03T06:07:28;3.57;;;3.27;;
2544;SDS011;36212;48.838;9.142;2022-09-03T06:10:00;3.17;;;2.97;;
2544;SDS011;36212;48.838;9.142;2022-09-03T06:12:34;3.70;;;3.40;;
2544;SDS011;36212;48.838;9.142;2022-09-03T06:15:07;3.60;;;3.23;;
2544;SDS011;36212;48.838;9.142;2022-09-03T06:17:40;3.10;;;2.90;;
2544;SDS011;36212;48.838;9.142;2022-09-03T06:20:12;4.53;;;3.17;;
2544;SDS011;36212;48.838;9.142;2022-09-03T06:22:48;3.50;;;3.30;;
2544;SDS011;36212;48.838;9.142;2022-09-03T06:25:24;3.70;;;3.40;;
2544;SDS011;36212;48.838;9.142;2022-09-03T06:27:56;3.63;;;3.43;;
2544;SDS011;36212;48.838;9.142;2022-09-03T06:30:31;3.60;;;3.27;;
2544;SDS011;36212;48.838;9.142;2022-09-03T06:33:04;3.83;;;3.63;;
2544;SDS011;36212;48.838;9.142;2022-09-03T06:35:36;3.20;;;3.00;;
2544;SDS011;36212;48.838;9.142;2022-09-03T06:38:13;3.43;;;3.13;;
2544;SDS011;36212;48.838;9.142;2022-09-03T06:40:51;3.33;;;3.13;;
2544;SDS011;36212;48.838;9.142;2022-09-03T06:43:30;3.20;;;2.90;;
2544;SDS011;36212;48.838;9.142;2022-09-03T06:46:07;3.77;;;3.47;;
2544;SDS011;36212;48.838;9.142;2022-09-03T06:48:45;3.47;;;3.20;;
2544;SDS011;36212;48.838;9.142;2022-09-03T06:51:24;3.63;;;3.30;;
2544;SDS011;36212;48.838;9.142;2022-09-03T06:54:06;3.67;;;2.87;;
2544;SDS011;36212;48.838;9.142;2022-09-03T06:56:41;3.70;;;3.47;;
2544;SDS011;36212;48.838;9.142;2022-09-03T06:59:13;3.47;;;3.17;;
2544;SDS011;36212;48.838;9.142;2022-09-03T07:01:46;3.20;;;3.00;;
2544;SDS011;36212;48.838;9.142;2022-09-03T07:04:18;3.47;;;3.27;;
2544;SDS011;36212;48.838;9.142;2022-09-03T07:06:53;3.30;;;3.10;;
2544;SDS011;36212;48.838;9.142;2022-09-03T07:09:26;3.40;;;3.10;;
2544;SDS011;36212;48.838;9.142;2022-09-03T07:11:58;4.30;;;4.00;;
2544;SDS011;36212;48.838;9.142;2022-09-03T07:14:30;3.83;;;3.53;;
2544;SDS011;36212;48.838;9.142;2022-09-03T07:17:03;3.60;;;3.30;;
2544;SDS011;36212;48.838;9.142;2022-09-03T07:19:35;3.77;;;3.47;;
2544;SDS011;36212;48.838;9.142;2022-09-03T07:22:07;5.83;;;3.40;;
2544;SDS011;36212;48.838;9.142;2022-09-03T07:24:40;4.60;;;3.40;;
2544;SDS011;36212;48.838;9.142;2022-09-03T07:27:16;4.17;;;3.80;;
2544;SDS011;36212;48.838;9.142;2022-09-03T07:29:49;3.37;;;3.17;;
2544;SDS011;36212;48.838;9.142;2022-09-03T07:32:20;4.47;;;2.93;;
2544;SDS011;36212;48.838;9.142;2022-09-03T07:34:53;3.40;;;3.20;;
2544;SDS011;36212;48.838;9.142;2022-09-03T07:37:25;3.30;;;3.00;;
2544;SDS011;36212;48.838;9.142;2022-09-03T07:39:57;4.43;;;3.50;;
2544;SDS011;36212;48.838;9.142;2022-09-03T07:42:31;3.53;;;3.33;;
2544;SDS011;36212;48.838;9.142;2022-09-03T07:45:07;3.57;;;3.37;;
2544;SDS011;36212;48.838;9.142;2022-09-03T07:47:46;3.40;;;3.20;;
2544;SDS011;36212;48.838;9.142;2022-09-03T07:50:20;3.73;;;3.13;;
2544;SDS011;36212;48.838;9.142;2022-09-03T07:52:56;3.87;;;3.50;;
2544;SDS011;36212;48.838;9.142;2022-09-03T07:55:29;4.20;;;3.90;;
2544;SDS011;36212;48.838;9.142;2022-09-03T07:58:01;3.50;;;3.30;;
2544;SDS011;36212;48.838;9.142;2022-09-03T08:00:34;3.43;;;3.13;;
2544;SDS011;36212;48.838;9.142;2022-09-03T08:03:06;4.30;;;3.43;;
2544;SDS011;36212;48.838;9.142;2022-09-03T08:05:39;3.97;;;3.50;;
2544;SDS011;36212;48.838;9.142;2022-09-03T08:08:11;4.10;;;3.80;;
2544;SDS011;36212;48.838;9.142;2022-09-03T08:10:47;3.43;;;3.23;;
2544;SDS011;36212;48.838;9.142;2022-09-03T08:13:19;3.17;;;2.97;;
2544;SDS011;36212;48.838;9.142;2022-09-03T08:15:54;4.30;;;4.00;;
2544;SDS011;36212;48.838;9.142;2022-09-03T08:18:29;9.03;;;3.67;;
2544;SDS011;36212;48.838;9.142;2022-09-03T08:21:10;3.90;;;3.60;;
2544;SDS011;36212;48.838;9.142;2022-09-03T08:23:48;4.10;;;3.80;;
2544;SDS011;36212;48.838;9.142;2022-09-03T08:26:25;4.27;;;3.87;;
2544;SDS011;36212;48.838;9.142;2022-09-03T08:28:59;4.37;;;3.80;;
2544;SDS011;36212;48.838;9.142;2022-09-03T08:31:33;4.20;;;3.90;;
2544;SDS011;36212;48.838;9.142;2022-09-03T08:34:07;3.37;;;3.17;;
2544;SDS011;36212;48.838;9.142;2022-09-03T08:36:44;3.73;;;3.53;;
2544;SDS011;36212;48.838;9.142;2022-09-03T08:39:18;3.67;;;3.47;;
2544;SDS011;36212;48.838;9.142;2022-09-03T08:44:56;4.37;;;4.10;;
2544;SDS011;36212;48.838;9.142;2022-09-03T08:47:38;4.30;;;4.10;;
2544;SDS011;36212;48.838;9.142;2022-09-03T08:50:40;4.03;;;3.83;;
2544;SDS011;36212;48.838;9.142;2022-09-03T08:56:29;5.20;;;4.73;;
2544;SDS011;36212;48.838;9.142;2022-09-03T08:59:15;5.00;;;4.70;;
2544;SDS011;36212;48.838;9.142;2022-09-03T09:08:18;5.20;;;4.90;;
2544;SDS011;36212;48.838;9.142;2022-09-03T09:24:41;5.10;;;4.80;;
2544;SDS011;36212;48.838;9.142;2022-09-03T09:27:17;5.33;;;4.83;;
2544;SDS011;36212;48.838;9.142;2022-09-03T09:29:50;5.67;;;5.00;;
2544;SDS011;36212;48.838;9.142;2022-09-03T09:32:24;4.93;;;4.60;;
2544;SDS011;36212;48.838;9.142;2022-09-03T09:34:56;5.97;;;4.83;;
2544;SDS011;36212;48.838;9.142;2022-09-03T09:37:28;5.23;;;4.73;;
2544;SDS011;36212;48.838;9.142;2022-09-03T09:40:01;4.50;;;4.10;;
2544;SDS011;36212;48.838;9.142;2022-09-03T09:42:34;4.83;;;4.30;;
2544;SDS011;36212;48.838;9.142;2022-09-03T09:45:08;4.47;;;4.10;;
2544;SDS011;36212;48.838;9.142;2022-09-03T09:47:42;5.07;;;4.50;;
2544;SDS011;36212;48.838;9.142;2022-09-03T09:50:17;4.67;;;4.47;;
2544;SDS011;36212;48.838;9.142;2022-09-03T09:53:04;6.93;;;4.57;;
2544;SDS011;36212;48.838;9.142;2022-09-03T09:55:51;4.53;;;4.33;;
2544;SDS011;36212;48.838;9.142;2022-09-03T09:58:26;4.90;;;4.50;;
2544;SDS011;36212;48.838;9.142;2022-09-03T10:03:52;3.93;;;3.60;;
2544;SDS011;36212;48.838;9.142;2022-09-03T10:06:29;4.30;;;3.90;;
2544;SDS011;36212;48.838;9.142;2022-09-03T10:09:40;3.83;;;3.53;;
2544;SDS011;36212;48.838;9.142;2022-09-03T10:20:50;4.07;;;3.30;;
2544;SDS011;36212;48.838;9.142;2022-09-03T10:23:50;3.67;;;3.40;;
2544;SDS011;36212;48.838;9.142;2022-09-03T10:26:55;3.90;;;3.60;;
2544;SDS011;36212;48.838;9.142;2022-09-03T10:29:28;4.23;;;3.83;;
2544;SDS011;36212;48.838;9.142;2022-09-03T10:32:03;6.10;;;3.83;;
2544;SDS011;36212;48.838;9.142;2022-09-03T10:35:29;8.43;;;3.60;;
2544;SDS011;36212;48.838;9.142;2022-09-03T10:41:21;4.00;;;3.70;;
2544;SDS011;36212;48.838;9.142;2022-09-03T10:44:53;3.23;;;3.13;;
2544;SDS011;36212;48.838;9.142;2022-09-03T10:51:19;3.20;;;2.97;;
2544;SDS011;36212;48.838;9.142;2022-09-03T11:00:50;3.50;;;3.30;;
2544;SDS011;36212;48.838;9.142;2022-09-03T11:06:46;3.50;;;3.30;;
2544;SDS011;36212;48.838;9.142;2022-09-03T11:09:36;3.47;;;3.27;;
2544;SDS011;36212;48.838;9.142;2022-09-03T11:12:34;3.90;;;3.70;;
2544;SDS011;36212;48.838;9.142;2022-09-03T11:15:32;3.90;;;3.70;;
2544;SDS011;36212;48.838;9.142;2022-09-03T11:18:28;3.50;;;3.30;;
2544;SDS011;36212;48.838;9.142;2022-09-03T11:21:21;3.63;;;3.43;;
2544;SDS011;36212;48.838;9.142;2022-09-03T11:26:44;4.27;;;3.53;;
2544;SDS011;36212;48.838;9.142;2022-09-03T11:29:33;4.00;;;3.80;;
2544;SDS011;36212;48.838;9.142;2022-09-03T11:32:59;4.03;;;3.73;;
2544;SDS011;36212;48.838;9.142;2022-09-03T11:35:41;3.67;;;3.37;;
2544;SDS011;36212;48.838;9.142;2022-09-03T11:43:43;4.77;;;3.43;;
2544;SDS011;36212;48.838;9.142;2022-09-03T11:49:12;4.07;;;3.87;;
2544;SDS011;36212;48.838;9.142;2022-09-03T11:52:00;3.50;;;3.30;;
2544;SDS011;36212;48.838;9.142;2022-09-03T11:54:42;3.87;;;3.60;;
2544;SDS011;36212;48.838;9.142;2022-09-03T11:57:21;3.73;;;3.50;;
2544;SDS011;36212;48.838;9.142;2022-09-03T12:00:08;4.00;;;3.70;;
2544;SDS011;36212;48.838;9.142;2022-09-03T12:02:54;4.57;;;3.80;;
2544;SDS011;36212;48.838;9.142;2022-09-03T12:17:53;5.03;;;4.70;;
2544;SDS011;36212;48.838;9.142;2022-09-03T12:26:21;4.27;;;3.97;;
2544;SDS011;36212;48.838;9.142;2022-09-03T12:28:57;4.00;;;3.60;;
2544;SDS011;36212;48.838;9.142;2022-09-03T12:31:41;4.27;;;3.97;;
2544;SDS011;36212;48.838;9.142;2022-09-03T12:34:18;4.77;;;4.40;;
2544;SDS011;36212;48.838;9.142;2022-09-03T12:36:53;4.70;;;4.40;;
2544;SDS011;36212;48.838;9.142;2022-09-03T12:39:26;4.00;;;3.70;;
2544;SDS011;36212;48.838;9.142;2022-09-03T12:42:28;4.40;;;4.20;;
2544;SDS011;36212;48.838;9.142;2022-09-03T12:45:06;4.30;;;4.00;;
2544;SDS011;36212;48.838;9.142;2022-09-03T12:47:49;3.73;;;2.67;;
2544;SDS011;36212;48.838;9.142;2022-09-03T12:50:23;4.07;;;2.47;;
2544;SDS011;36212;48.838;9.142;2022-09-03T12:52:57;2.83;;;2.63;;
2544;SDS011;36212;48.838;9.142;2022-09-03T12:58:10;3.53;;;2.77;;
2544;SDS011;36212;48.838;9.142;2022-09-03T13:00:52;5.90;;;3.27;;
2544;SDS011;36212;48.838;9.142;2022-09-03T13:03:46;2.90;;;2.70;;
2544;SDS011;36212;48.838;9.142;2022-09-03T13:06:52;3.03;;;2.70;;
2544;SDS011;36212;48.838;9.142;2022-09-03T13:09:41;3.03;;;2.83;;
2544;SDS011;36212;48.838;9.142;2022-09-03T13:12:27;2.87;;;2.57;;
2544;SDS011;36212;48.838;9.142;2022-09-03T13:15:16;3.00;;;2.80;;
2544;SDS011;36212;48.838;9.142;2022-09-03T13:18:15;3.43;;;3.20;;
2544;SDS011;36212;48.838;9.142;2022-09-03T13:27:51;3.40;;;3.20;;
2544;SDS011;36212;48.838;9.142;2022-09-03T13:30:56;2.47;;;2.27;;
2544;SDS011;36212;48.838;9.142;2022-09-03T13:34:00;2.00;;;1.90;;
2544;SDS011;36212;48.838;9.142;2022-09-03T13:40:02;2.10;;;2.00;;
2544;SDS011;36212;48.838;9.142;2022-09-03T13:46:19;1.93;;;1.70;;
2544;SDS011;36212;48.838;9.142;2022-09-03T13:55:40;2.70;;;2.30;;
2544;SDS011;36212;48.838;9.142;2022-09-03T13:58:32;2.20;;;2.10;;
2544;SDS011;36212;48.838;9.142;2022-09-03T14:01:17;2.37;;;2.10;;
2544;SDS011;36212;48.838;9.142;2022-09-03T14:04:32;2.50;;;2.30;;
2544;SDS011;36212;48.838;9.142;2022-09-03T14:07:45;2.30;;;2.10;;
2544;SDS011;36212;48.838;9.142;2022-09-03T14:19:47;2.00;;;1.90;;
2544;SDS011;36212;48.838;9.142;2022-09-03T14:22:49;2.17;;;2.07;;
2544;SDS011;36212;48.838;9.142;2022-09-03T14:26:02;1.60;;;1.50;;
2544;SDS011;36212;48.838;9.142;2022-09-03T14:28:58;2.30;;;2.10;;
2544;SDS011;36212;48.838;9.142;2022-09-03T14:35:12;1.90;;;1.80;;
2544;SDS011;36212;48.838;9.142;2022-09-03T14:38:20;2.10;;;2.00;;
2544;SDS011;36212;48.838;9.142;2022-09-03T14:44:37;2.73;;;2.50;;
2544;SDS011;36212;48.838;9.142;2022-09-03T15:00:44;4.20;;;3.80;;
2544;SDS011;36212;48.838;9.142;2022-09-03T15:04:02;3.00;;;2.90;;
2544;SDS011;36212;48.838;9.142;2022-09-03T15:07:20;3.00;;;2.50;;
2544;SDS011;36212;48.838;9.142;2022-09-03T15:13:21;2.80;;;2.60;;
2544;SDS011;36212;48.838;9.142;2022-09-03T15:19:07;2.70;;;2.60;;
2544;SDS011;36212;48.838;9.142;2022-09-03T15:29:06;2.50;;;2.30;;
2544;SDS011;36212;48.838;9.142;2022-09-03T15:35:26;2.00;;;1.90;;
2544;SDS011;36212;48.838;9.142;2022-09-03T15:38:39;2.33;;;1.87;;
2544;SDS011;36212;48.838;9.142;2022-09-03T15:41:51;2.63;;;2.50;;
2544;SDS011;36212;48.838;9.142;2022-09-03T15:44:41;2.10;;;2.00;;
2544;SDS011;36212;48.838;9.142;2022-09-03T15:50:31;2.50;;;2.37;;
2544;SDS011;36212;48.838;9.142;2022-09-03T15:53:43;2.17;;;2.07;;
2544;SDS011;36212;48.838;9.142;2022-09-03T15:59:28;2.33;;;2.23;;
2544;SDS011;36212;48.838;9.142;2022-09-03T16:02:17;2.40;;;2.30;;
2544;SDS011;36212;48.838;9.142;2022-09-03T16:05:19;2.33;;;2.23;;
2544;SDS011;36212;48.838;9.142;2022-09-03T16:48:14;3.33;;;3.13;;
2544;SDS011;36212;48.838;9.142;2022-09-03T16:51:17;3.10;;;2.90;;
2544;SDS011;36212;48.838;9.142;2022-09-03T16:57:22;3.30;;;3.07;;
2544;SDS011;36212;48.838;9.142;2022-09-03T17:00:25;3.00;;;2.80;;
2544;SDS011;36212;48.838;9.142;2022-09-03T17:04:11;2.60;;;2.40;;
2544;SDS011;36212;48.838;9.142;2022-09-03T17:50:19;3.40;;;3.20;;
2544;SDS011;36212;48.838;9.142;2022-09-03T17:53:09;3.27;;;2.90;;
2544;SDS011;36212;48.838;9.142;2022-09-03T18:02:11;3.37;;;3.07;;
2544;SDS011;36212;48.838;9.142;2022-09-03T18:08:18;3.00;;;2.80;;
2544;SDS011;36212;48.838;9.142;2022-09-03T18:17:12;3.67;;;3.47;;
2544;SDS011;36212;48.838;9.142;2022-09-03T18:20:08;3.50;;;3.23;;
2544;SDS011;36212;48.838;9.142;2022-09-03T18:23:21;3.67;;;3.37;;
2544;SDS011;36212;48.838;9.142;2022-09-03T18:26:40;3.83;;;3.60;;
2544;SDS011;36212;48.838;9.142;2022-09-03T18:30:05;3.60;;;3.03;;
2544;SDS011;36212;48.838;9.142;2022-09-03T18:33:20;4.90;;;4.47;;
2544;SDS011;36212;48.838;9.142;2022-09-03T18:36:33;5.43;;;4.53;;
2544;SDS011;36212;48.838;9.142;2022-09-03T18:39:44;6.43;;;5.23;;
2544;SDS011;36212;48.838;9.142;2022-09-03T18:46:36;7.03;;;5.20;;
2544;SDS011;36212;48.838;9.142;2022-09-03T18:53:48;7.07;;;5.03;;
2544;SDS011;36212;48.838;9.142;2022-09-03T18:57:09;5.33;;;4.83;;
2544;SDS011;36212;48.838;9.142;2022-09-03T19:00:29;5.33;;;4.50;;
2544;SDS011;36212;48.838;9.142;2022-09-03T19:04:03;4.73;;;4.30;;
2544;SDS011;36212;48.838;9.142;2022-09-03T19:07:27;4.30;;;4.00;;
2544;SDS011;36212;48.838;9.142;2022-09-03T19:10:53;4.90;;;4.60;;
2544;SDS011;36212;48.838;9.142;2022-09-03T19:18:28;4.87;;;4.57;;
2544;SDS011;36212;48.838;9.142;2022-09-03T19:21:57;4.97;;;4.53;;
2544;SDS011;36212;48.838;9.142;2022-09-03T19:25:14;4.80;;;4.40;;
2544;SDS011;36212;48.838;9.142;2022-09-03T19:28:25;4.47;;;4.17;;
2544;SDS011;36212;48.838;9.142;2022-09-03T19:31:44;4.10;;;3.80;;
2544;SDS011;36212;48.838;9.142;2022-09-03T19:35:20;4.57;;;4.17;;
2544;SDS011;36212;48.838;9.142;2022-09-03T19:48:55;3.93;;;3.47;;
2544;SDS011;36212;48.838;9.142;2022-09-03T19:52:32;7.13;;;4.40;;
2544;SDS011;36212;48.838;9.142;2022-09-03T19:55:53;4.00;;;3.70;;
2544;SDS011;36212;48.838;9.142;2022-09-03T19:59:09;4.30;;;3.90;;
2544;SDS011;36212;48.838;9.142;2022-09-03T20:02:24;3.77;;;3.57;;
2544;SDS011;36212;48.838;9.142;2022-09-03T20:05:36;3.93;;;3.67;;
2544;SDS011;36212;48.838;9.142;2022-09-03T20:08:46;3.03;;;2.83;;
2544;SDS011;36212;48.838;9.142;2022-09-03T20:12:01;4.03;;;3.73;;
2544;SDS011;36212;48.838;9.142;2022-09-03T20:14:42;4.10;;;3.80;;
2544;SDS011;36212;48.838;9.142;2022-09-03T20:17:19;4.10;;;3.80;;
2544;SDS011;36212;48.838;9.142;2022-09-03T20:23:29;3.90;;;3.67;;
2544;SDS011;36212;48.838;9.142;2022-09-03T20:30:06;4.03;;;3.73;;
2544;SDS011;36212;48.838;9.142;2022-09-03T20:36:14;5.70;;;3.70;;
2544;SDS011;36212;48.838;9.142;2022-09-03T21:05:46;3.93;;;3.63;;
2544;SDS011;36212;48.838;9.142;2022-09-03T21:08:54;4.40;;;4.10;;
2544;SDS011;36212;48.838;9.142;2022-09-03T21:12:03;3.70;;;3.43;;
2544;SDS011;36212;48.838;9.142;2022-09-03T21:15:12;4.03;;;3.73;;
2544;SDS011;36212;48.838;9.142;2022-09-03T21:24:21;3.50;;;3.30;;
2544;SDS011;36212;48.838;9.142;2022-09-03T21:27:13;4.30;;;4.00;;
2544;SDS011;36212;48.838;9.142;2022-09-03T21:29:58;4.17;;;3.97;;
2544;SDS011;36212;48.838;9.142;2022-09-03T21:32:49;4.37;;;3.97;;
2544;SDS011;36212;48.838;9.142;2022-09-03T21:35:48;4.40;;;4.10;;
2544;SDS011;36212;48.838;9.142;2022-09-03T21:38:33;4.33;;;4.03;;
2544;SDS011;36212;48.838;9.142;2022-09-03T21:41:14;4.50;;;4.20;;
2544;SDS011;36212;48.838;9.142;2022-09-03T21:44:10;4.27;;;3.97;;
2544;SDS011;36212;48.838;9.142;2022-09-03T21:47:09;4.07;;;3.80;;
2544;SDS011;36212;48.838;9.142;2022-09-03T21:52:54;4.70;;;4.30;;
2544;SDS011;36212;48.838;9.142;2022-09-03T21:56:28;4.77;;;4.37;;
2544;SDS011;36212;48.838;9.142;2022-09-03T21:59:05;7.33;;;5.00;;
2544;SDS011;36212;48.838;9.142;2022-09-03T22:02:24;5.53;;;5.13;;
2544;SDS011;36212;48.838;9.142;2022-09-03T22:04:59;5.60;;;5.10;;
2544;SDS011;36212;48.838;9.142;2022-09-03T22:13:44;5.30;;;5.00;;
2544;SDS011;36212;48.838;9.142;2022-09-03T22:20:07;5.47;;;5.07;;
2544;SDS011;36212;48.838;9.142;2022-09-03T22:25:51;5.10;;;4.70;;
2544;SDS011;36212;48.838;9.142;2022-09-03T22:28:38;6.03;;;5.53;;
2544;SDS011;36212;48.838;9.142;2022-09-03T22:31:43;5.67;;;5.27;;
2544;SDS011;36212;48.838;9.142;2022-09-03T22:56:51;5.17;;;4.73;;
2544;SDS011;36212;48.838;9.142;2022-09-03T22:59:36;5.57;;;5.07;;
2544;SDS011;36212;48.838;9.142;2022-09-03T23:02:22;5.40;;;4.90;;
2544;SDS011;36212;48.838;9.142;2022-09-03T23:05:23;12.87;;;6.13;;
2544;SDS011;36212;48.838;9.142;2022-09-03T23:08:16;5.93;;;5.53;;
2544;SDS011;36212;48.838;9.142;2022-09-03T23:14:02;7.80;;;5.87;;
2544;SDS011;36212;48.838;9.142;2022-09-03T23:16:43;6.83;;;6.13;;
2544;SDS011;36212;48.838;9.142;2022-09-03T23:19:41;6.73;;;6.13;;
2544;SDS011;36212;48.838;9.142;2022-09-03T23:22:33;6.80;;;6.30;;
2544;SDS011;36212;48.838;9.142;2022-09-03T23:25:38;5.50;;;4.97;;
2544;SDS011;36212;48.838;9.142;2022-09-03T23:31:19;5.30;;;4.80;;
2544;SDS011;36212;48.838;9.142;2022-09-03T23:33:56;5.50;;;5.10;;
2544;SDS011;36212;48.838;9.142;2022-09-03T23:55:32;4.13;;;3.70;;
